KDWH/DWH METAR and TAF weather

Enter ICAO airport designator
Station Type Date Time Source
KDWH METAR 2020/09/27 15:53 UTC NOAA

KDWH 271553Z 20011G17KT 8SM SCT029 28/21 A2986 RMK AO2 SLP108 T02830211


Station Type Date Time Source
KDWH Decoded METAR 2020/09/27 15:53 UTC NOAA

HOUSTON HOOKS MEMORIAL, TX, United States (KDWH) 30-04N 95-33W 46M
Sep 27, 2020 - 11:53 AM EDT / 2020.09.27 1553 UTC
Wind: from the SSW (200 degrees) at 13 MPH (11 KT) gusting to 20 MPH (17 KT):0
Visibility: 8 mile(s):0
Sky conditions: partly cloudy
Temperature: 82.9 F (28.3 C)
Dew Point: 70.0 F (21.1 C)
Relative Humidity: 65%
Pressure (altimeter): 29.86 in. Hg (1011 hPa)
ob: KDWH 271553Z 20011G17KT 8SM SCT029 28/21 A2986 RMK AO2 SLP108 T02830211
cycle: 16

Station Type Date Time Source
KDWH TAF 2017/02/07 15:09 UTC NOAA

TAF
AMD KDWH 071507Z 0715/0812 23010KT P6SM BKN015
TEMPO 0715/0719 SCT015
FM071900 25010KT P6SM SCT025
FM080100 22005KT P6SM SCT250
TEMPO 0807/0809 3SM BR BKN013
FM080900 VRB03KT 2SM BR OVC008

Example: see airport list